Airfield :
LOGIN :

Register | Disclaimer

   EN    FR    IT 

 










Legend :    VFR   Marginal VFR   IFR   Intensive IFR   Very Intensive IFR
Visi :
Ceiling :
>= 8 km
>= 3000ft
5 to 8 km
1000 to 3000 ft
1500m to 5 km
500 to 1000 ft
800 to 1500m
200 to 500 ft
< 800m
< 200 ft
Symbols :   Thunderstorms  Fog  Heavy snow  Heavy precipitations  Wind > 20 kt
SIGMETs :     Misc.  Thunderstorms  Icing  Turbulence  Mountain Waves  Volcanic Ashes






- Airport Elevation : 42 ft
- IATA code : LMO


EGQS - Lossiemouth

CURRENT METAR :
  • 271320Z 24008KT 9999 -RA FEW014 SCT026 BKN050 09/08 Q0996 RERA NOSIG RMK BLU BLU

EXPIRED METARs :
  • 271250Z 25010KT 9999 RA FEW014 SCT026 BKN042 09/08 Q0996 TEMPO 6000 RA SCT022 RMK BLU TEMPO WHT
  • 271219Z 26010KT 8000 -RA FEW018 SCT028 BKN042 09/08 Q0997 TEMPO 6000 RA BKN018 RMK BLU TEMPO WHT
  • 271150Z 27012KT 9999 RA FEW014 SCT018 OVC050 09/08 Q0996 TEMPO SCT025 RMK WHT TEMPO BLU
  • 271120Z 28013KT 7000 RA FEW014 SCT018 BKN035 09/07 Q0996 TEMPO 9999 NSW SCT025 RMK WHT TEMPO BLU

TAF TAF EGQS
Valid from the 27 at 12:00 until the 28 at 06:00 UTC


271031Z 2712/2806 28014KT 9999 BKN030
TEMPO 2712/2713 7000 RA BKN020
PROB30
TEMPO 2713/2717 26015G25KT 7000 SHRA SCT014 BKN022



MET'MAP, your aeronautical weather chart ! - Copyright ORBIFLY December 2007 - Disclaimer

ORBIFLY MET'MAP TEAM :

Programming & Development : Alexandra Zaïnal
Concept & original design : Baudouin d'Aumeries
Assistance for programming : Marc-Olivier Méhu
Technical & hardware support : Manuel Goepfert

Contact : metmap@orbifly.com




SOURCES & CREDITS :

   NOAA